sensor_id;sensor_type;location;lat;lon;timestamp;temperature;humidity
23073;DHT22;67971;51.046;3.732;2023-07-31T00:00:06;18.20;99.90
23073;DHT22;67971;51.046;3.732;2023-07-31T00:02:34;18.20;99.90
23073;DHT22;67971;51.046;3.732;2023-07-31T00:05:00;18.20;99.90
23073;DHT22;67971;51.046;3.732;2023-07-31T00:07:26;18.20;99.90
23073;DHT22;67971;51.046;3.732;2023-07-31T00:09:52;18.20;99.90
23073;DHT22;67971;51.046;3.732;2023-07-31T00:12:19;18.30;99.90
23073;DHT22;67971;51.046;3.732;2023-07-31T00:14:45;18.20;99.90
23073;DHT22;67971;51.046;3.732;2023-07-31T00:17:11;18.20;99.90
23073;DHT22;67971;51.046;3.732;2023-07-31T00:19:37;18.20;99.90
23073;DHT22;67971;51.046;3.732;2023-07-31T00:22:02;18.20;99.90
23073;DHT22;67971;51.046;3.732;2023-07-31T00:24:28;18.20;99.90
23073;DHT22;67971;51.046;3.732;2023-07-31T00:26:54;18.30;99.90
23073;DHT22;67971;51.046;3.732;2023-07-31T00:29:19;18.30;99.90
23073;DHT22;67971;51.046;3.732;2023-07-31T00:31:45;18.30;99.90
23073;DHT22;67971;51.046;3.732;2023-07-31T00:34:11;18.20;99.90
23073;DHT22;67971;51.046;3.732;2023-07-31T00:36:36;18.10;99.90
23073;DHT22;67971;51.046;3.732;2023-07-31T00:39:02;18.20;99.90
23073;DHT22;67971;51.046;3.732;2023-07-31T00:41:28;18.10;99.90
23073;DHT22;67971;51.046;3.732;2023-07-31T00:43:53;18.10;99.90
23073;DHT22;67971;51.046;3.732;2023-07-31T00:46:20;18.10;99.90
23073;DHT22;67971;51.046;3.732;2023-07-31T00:48:45;18.00;99.90
23073;DHT22;67971;51.046;3.732;2023-07-31T00:51:11;18.00;99.90
23073;DHT22;67971;51.046;3.732;2023-07-31T00:53:37;18.10;99.90
23073;DHT22;67971;51.046;3.732;2023-07-31T00:56:03;18.10;99.90
23073;DHT22;67971;51.046;3.732;2023-07-31T00:58:29;18.20;99.90
23073;DHT22;67971;51.046;3.732;2023-07-31T01:00:55;18.10;99.90
23073;DHT22;67971;51.046;3.732;2023-07-31T01:03:21;18.20;99.90
23073;DHT22;67971;51.046;3.732;2023-07-31T01:10:51;18.30;99.90
23073;DHT22;67971;51.046;3.732;2023-07-31T01:13:21;18.30;99.90
23073;DHT22;67971;51.046;3.732;2023-07-31T01:15:46;18.40;99.90
23073;DHT22;67971;51.046;3.732;2023-07-31T01:18:12;18.50;99.90
23073;DHT22;67971;51.046;3.732;2023-07-31T01:20:38;18.50;99.90
23073;DHT22;67971;51.046;3.732;2023-07-31T01:26:03;18.60;99.90
23073;DHT22;67971;51.046;3.732;2023-07-31T01:28:50;18.40;99.90
23073;DHT22;67971;51.046;3.732;2023-07-31T01:31:20;18.40;99.90
23073;DHT22;67971;51.046;3.732;2023-07-31T01:33:46;18.50;99.90
23073;DHT22;67971;51.046;3.732;2023-07-31T01:36:12;18.50;99.90
23073;DHT22;67971;51.046;3.732;2023-07-31T01:38:38;18.50;99.90
23073;DHT22;67971;51.046;3.732;2023-07-31T01:41:03;18.40;99.90
23073;DHT22;67971;51.046;3.732;2023-07-31T01:43:29;18.40;99.90
23073;DHT22;67971;51.046;3.732;2023-07-31T01:45:54;18.50;99.90
23073;DHT22;67971;51.046;3.732;2023-07-31T01:48:20;18.60;99.90
23073;DHT22;67971;51.046;3.732;2023-07-31T01:50:46;18.60;99.90
23073;DHT22;67971;51.046;3.732;2023-07-31T01:53:11;18.60;99.90
23073;DHT22;67971;51.046;3.732;2023-07-31T01:55:38;18.60;99.90
23073;DHT22;67971;51.046;3.732;2023-07-31T01:58:04;18.50;99.90
23073;DHT22;67971;51.046;3.732;2023-07-31T02:00:29;18.50;99.90
23073;DHT22;67971;51.046;3.732;2023-07-31T02:02:55;18.40;99.90
23073;DHT22;67971;51.046;3.732;2023-07-31T02:05:21;18.40;99.90
23073;DHT22;67971;51.046;3.732;2023-07-31T02:07:46;18.40;99.90
23073;DHT22;67971;51.046;3.732;2023-07-31T02:10:12;18.40;99.90
23073;DHT22;67971;51.046;3.732;2023-07-31T02:12:37;18.40;99.90
23073;DHT22;67971;51.046;3.732;2023-07-31T02:15:03;18.50;99.90
23073;DHT22;67971;51.046;3.732;2023-07-31T02:17:29;18.50;99.90
23073;DHT22;67971;51.046;3.732;2023-07-31T02:19:55;18.40;99.90
23073;DHT22;67971;51.046;3.732;2023-07-31T02:22:20;18.40;99.90
23073;DHT22;67971;51.046;3.732;2023-07-31T02:24:46;18.40;99.90
23073;DHT22;67971;51.046;3.732;2023-07-31T02:27:12;18.50;99.90
23073;DHT22;67971;51.046;3.732;2023-07-31T02:29:37;18.50;99.90
23073;DHT22;67971;51.046;3.732;2023-07-31T02:32:03;18.50;99.90
23073;DHT22;67971;51.046;3.732;2023-07-31T02:34:29;18.50;99.90
23073;DHT22;67971;51.046;3.732;2023-07-31T02:36:54;18.50;99.90
23073;DHT22;67971;51.046;3.732;2023-07-31T02:39:20;18.60;99.90
23073;DHT22;67971;51.046;3.732;2023-07-31T02:41:46;18.60;99.90
23073;DHT22;67971;51.046;3.732;2023-07-31T02:44:12;18.60;99.90
23073;DHT22;67971;51.046;3.732;2023-07-31T02:46:39;18.60;99.90
23073;DHT22;67971;51.046;3.732;2023-07-31T02:49:05;18.60;99.90
23073;DHT22;67971;51.046;3.732;2023-07-31T02:51:31;18.50;99.90
23073;DHT22;67971;51.046;3.732;2023-07-31T02:53:56;18.50;99.90
23073;DHT22;67971;51.046;3.732;2023-07-31T02:56:22;18.50;99.90
23073;DHT22;67971;51.046;3.732;2023-07-31T02:58:47;18.50;99.90
23073;DHT22;67971;51.046;3.732;2023-07-31T03:01:13;18.60;99.90
23073;DHT22;67971;51.046;3.732;2023-07-31T03:03:41;18.70;99.90
23073;DHT22;67971;51.046;3.732;2023-07-31T03:06:07;18.70;99.90
23073;DHT22;67971;51.046;3.732;2023-07-31T03:08:32;18.70;99.90
23073;DHT22;67971;51.046;3.732;2023-07-31T03:10:58;18.70;99.90
23073;DHT22;67971;51.046;3.732;2023-07-31T03:13:24;18.60;99.90
23073;DHT22;67971;51.046;3.732;2023-07-31T03:15:50;18.50;99.90
23073;DHT22;67971;51.046;3.732;2023-07-31T03:18:15;18.40;99.90
23073;DHT22;67971;51.046;3.732;2023-07-31T03:20:44;18.40;99.90
23073;DHT22;67971;51.046;3.732;2023-07-31T03:23:10;18.40;99.90
23073;DHT22;67971;51.046;3.732;2023-07-31T03:25:35;18.40;99.90
23073;DHT22;67971;51.046;3.732;2023-07-31T03:28:01;18.40;99.90
23073;DHT22;67971;51.046;3.732;2023-07-31T03:30:27;18.40;99.90
23073;DHT22;67971;51.046;3.732;2023-07-31T03:32:52;18.40;99.90
23073;DHT22;67971;51.046;3.732;2023-07-31T03:35:18;18.30;99.90
23073;DHT22;67971;51.046;3.732;2023-07-31T03:37:43;18.40;99.90
23073;DHT22;67971;51.046;3.732;2023-07-31T03:40:10;18.50;99.90
23073;DHT22;67971;51.046;3.732;2023-07-31T03:42:35;18.40;99.90
23073;DHT22;67971;51.046;3.732;2023-07-31T03:45:01;18.30;99.90
23073;DHT22;67971;51.046;3.732;2023-07-31T03:47:27;18.30;99.90
23073;DHT22;67971;51.046;3.732;2023-07-31T03:49:52;18.10;99.90
23073;DHT22;67971;51.046;3.732;2023-07-31T03:52:18;18.00;99.90
23073;DHT22;67971;51.046;3.732;2023-07-31T03:54:43;18.00;99.90
23073;DHT22;67971;51.046;3.732;2023-07-31T03:57:10;17.90;99.90
23073;DHT22;67971;51.046;3.732;2023-07-31T03:59:36;18.00;99.90
23073;DHT22;67971;51.046;3.732;2023-07-31T04:02:04;18.00;99.90
23073;DHT22;67971;51.046;3.732;2023-07-31T04:04:30;18.00;99.90
23073;DHT22;67971;51.046;3.732;2023-07-31T04:06:55;18.10;99.90
23073;DHT22;67971;51.046;3.732;2023-07-31T04:09:21;18.10;99.90
23073;DHT22;67971;51.046;3.732;2023-07-31T04:11:46;18.00;99.90
23073;DHT22;67971;51.046;3.732;2023-07-31T04:14:12;18.00;99.90
23073;DHT22;67971;51.046;3.732;2023-07-31T04:16:38;17.90;99.90
23073;DHT22;67971;51.046;3.732;2023-07-31T04:19:03;17.80;99.90
23073;DHT22;67971;51.046;3.732;2023-07-31T04:21:29;17.80;99.90
23073;DHT22;67971;51.046;3.732;2023-07-31T04:23:55;17.80;99.90
23073;DHT22;67971;51.046;3.732;2023-07-31T04:26:21;17.90;99.90
23073;DHT22;67971;51.046;3.732;2023-07-31T04:28:47;17.90;99.90
23073;DHT22;67971;51.046;3.732;2023-07-31T04:31:13;17.80;99.90
23073;DHT22;67971;51.046;3.732;2023-07-31T04:33:38;17.90;99.90
23073;DHT22;67971;51.046;3.732;2023-07-31T04:36:05;17.80;99.90
23073;DHT22;67971;51.046;3.732;2023-07-31T04:38:30;17.80;99.90
23073;DHT22;67971;51.046;3.732;2023-07-31T04:40:56;17.70;99.90
23073;DHT22;67971;51.046;3.732;2023-07-31T04:43:22;17.70;99.90
23073;DHT22;67971;51.046;3.732;2023-07-31T04:45:48;17.70;99.90
23073;DHT22;67971;51.046;3.732;2023-07-31T04:48:14;17.80;99.90
23073;DHT22;67971;51.046;3.732;2023-07-31T04:50:40;17.80;99.90
23073;DHT22;67971;51.046;3.732;2023-07-31T04:53:05;17.70;99.90
23073;DHT22;67971;51.046;3.732;2023-07-31T04:55:31;17.70;99.90
23073;DHT22;67971;51.046;3.732;2023-07-31T04:57:58;17.70;99.90
23073;DHT22;67971;51.046;3.732;2023-07-31T05:00:24;17.60;99.90
23073;DHT22;67971;51.046;3.732;2023-07-31T05:02:50;17.60;99.90
23073;DHT22;67971;51.046;3.732;2023-07-31T05:05:15;17.60;99.90
23073;DHT22;67971;51.046;3.732;2023-07-31T05:07:41;17.40;99.90
23073;DHT22;67971;51.046;3.732;2023-07-31T05:10:07;17.50;99.90
23073;DHT22;67971;51.046;3.732;2023-07-31T05:12:33;17.50;99.90
23073;DHT22;67971;51.046;3.732;2023-07-31T05:14:58;17.60;99.90
23073;DHT22;67971;51.046;3.732;2023-07-31T05:17:24;17.50;99.90
23073;DHT22;67971;51.046;3.732;2023-07-31T05:19:49;17.60;99.90
23073;DHT22;67971;51.046;3.732;2023-07-31T05:22:15;17.60;99.90
23073;DHT22;67971;51.046;3.732;2023-07-31T05:24:41;17.70;99.90
23073;DHT22;67971;51.046;3.732;2023-07-31T05:27:06;17.70;99.90
23073;DHT22;67971;51.046;3.732;2023-07-31T05:29:32;17.80;99.90
23073;DHT22;67971;51.046;3.732;2023-07-31T05:31:58;17.80;99.90
23073;DHT22;67971;51.046;3.732;2023-07-31T05:34:23;17.80;99.90
23073;DHT22;67971;51.046;3.732;2023-07-31T05:36:49;17.90;99.90
23073;DHT22;67971;51.046;3.732;2023-07-31T05:39:14;17.90;99.90
23073;DHT22;67971;51.046;3.732;2023-07-31T05:41:40;17.80;99.90
23073;DHT22;67971;51.046;3.732;2023-07-31T05:44:06;17.90;99.90
23073;DHT22;67971;51.046;3.732;2023-07-31T05:46:31;17.90;99.90
23073;DHT22;67971;51.046;3.732;2023-07-31T05:48:57;17.90;99.90
23073;DHT22;67971;51.046;3.732;2023-07-31T05:51:25;18.00;99.90
23073;DHT22;67971;51.046;3.732;2023-07-31T05:53:50;17.90;99.90
23073;DHT22;67971;51.046;3.732;2023-07-31T05:56:16;17.90;99.90
23073;DHT22;67971;51.046;3.732;2023-07-31T05:58:42;18.00;99.90
23073;DHT22;67971;51.046;3.732;2023-07-31T06:01:07;18.10;99.90
23073;DHT22;67971;51.046;3.732;2023-07-31T06:03:33;18.00;99.90
23073;DHT22;67971;51.046;3.732;2023-07-31T06:05:58;18.00;99.90
23073;DHT22;67971;51.046;3.732;2023-07-31T06:08:24;18.10;99.90
23073;DHT22;67971;51.046;3.732;2023-07-31T06:10:49;18.10;99.90
23073;DHT22;67971;51.046;3.732;2023-07-31T06:13:15;18.10;99.90
23073;DHT22;67971;51.046;3.732;2023-07-31T06:15:41;18.20;99.90
23073;DHT22;67971;51.046;3.732;2023-07-31T06:18:06;18.20;99.90
23073;DHT22;67971;51.046;3.732;2023-07-31T06:20:34;18.10;99.90
23073;DHT22;67971;51.046;3.732;2023-07-31T06:22:59;18.20;99.90
23073;DHT22;67971;51.046;3.732;2023-07-31T06:25:25;18.10;99.90
23073;DHT22;67971;51.046;3.732;2023-07-31T06:27:51;18.20;99.90
23073;DHT22;67971;51.046;3.732;2023-07-31T06:30:16;18.20;99.90
23073;DHT22;67971;51.046;3.732;2023-07-31T06:32:42;18.30;99.90
23073;DHT22;67971;51.046;3.732;2023-07-31T06:35:08;18.30;99.90
23073;DHT22;67971;51.046;3.732;2023-07-31T06:37:34;18.30;99.90
23073;DHT22;67971;51.046;3.732;2023-07-31T06:39:59;18.20;99.90
23073;DHT22;67971;51.046;3.732;2023-07-31T06:42:25;18.20;99.90
23073;DHT22;67971;51.046;3.732;2023-07-31T06:44:51;18.30;99.90
23073;DHT22;67971;51.046;3.732;2023-07-31T06:47:16;18.50;99.90
23073;DHT22;67971;51.046;3.732;2023-07-31T06:49:42;18.50;99.90
23073;DHT22;67971;51.046;3.732;2023-07-31T06:52:08;18.50;99.90
23073;DHT22;67971;51.046;3.732;2023-07-31T06:54:33;18.40;99.90
23073;DHT22;67971;51.046;3.732;2023-07-31T06:56:59;18.30;99.90
23073;DHT22;67971;51.046;3.732;2023-07-31T06:59:24;18.30;99.90
23073;DHT22;67971;51.046;3.732;2023-07-31T07:01:50;18.30;99.90
23073;DHT22;67971;51.046;3.732;2023-07-31T07:04:15;18.40;99.90
23073;DHT22;67971;51.046;3.732;2023-07-31T07:06:41;18.40;99.90
23073;DHT22;67971;51.046;3.732;2023-07-31T07:09:07;18.50;99.90
23073;DHT22;67971;51.046;3.732;2023-07-31T07:11:33;18.40;99.90
23073;DHT22;67971;51.046;3.732;2023-07-31T07:13:59;18.50;99.90
23073;DHT22;67971;51.046;3.732;2023-07-31T07:16:28;18.50;99.90
23073;DHT22;67971;51.046;3.732;2023-07-31T07:18:53;18.60;99.90
23073;DHT22;67971;51.046;3.732;2023-07-31T07:21:19;18.60;99.90
23073;DHT22;67971;51.046;3.732;2023-07-31T07:23:45;18.60;99.90
23073;DHT22;67971;51.046;3.732;2023-07-31T07:26:10;18.70;99.90
23073;DHT22;67971;51.046;3.732;2023-07-31T07:28:36;18.80;99.90
23073;DHT22;67971;51.046;3.732;2023-07-31T07:31:03;18.80;99.90
23073;DHT22;67971;51.046;3.732;2023-07-31T07:33:28;18.90;99.90
23073;DHT22;67971;51.046;3.732;2023-07-31T07:35:54;19.10;99.90
23073;DHT22;67971;51.046;3.732;2023-07-31T07:38:20;19.10;99.90
23073;DHT22;67971;51.046;3.732;2023-07-31T07:40:46;19.10;99.90
23073;DHT22;67971;51.046;3.732;2023-07-31T07:43:15;19.10;99.90
23073;DHT22;67971;51.046;3.732;2023-07-31T07:45:41;19.20;99.90
23073;DHT22;67971;51.046;3.732;2023-07-31T07:48:07;19.30;99.90
23073;DHT22;67971;51.046;3.732;2023-07-31T07:50:32;19.20;99.90
23073;DHT22;67971;51.046;3.732;2023-07-31T07:52:58;19.10;99.90
23073;DHT22;67971;51.046;3.732;2023-07-31T07:55:24;19.10;99.90
23073;DHT22;67971;51.046;3.732;2023-07-31T07:57:49;19.10;99.90
23073;DHT22;67971;51.046;3.732;2023-07-31T08:00:16;19.00;99.90
23073;DHT22;67971;51.046;3.732;2023-07-31T08:02:43;19.00;99.90
23073;DHT22;67971;51.046;3.732;2023-07-31T08:05:08;19.00;99.90
23073;DHT22;67971;51.046;3.732;2023-07-31T08:07:34;19.20;99.90
23073;DHT22;67971;51.046;3.732;2023-07-31T08:10:00;19.50;99.90
23073;DHT22;67971;51.046;3.732;2023-07-31T08:12:25;19.50;99.90
23073;DHT22;67971;51.046;3.732;2023-07-31T08:14:51;19.60;99.90
23073;DHT22;67971;51.046;3.732;2023-07-31T08:17:17;19.60;99.90
23073;DHT22;67971;51.046;3.732;2023-07-31T08:19:43;19.60;99.90
23073;DHT22;67971;51.046;3.732;2023-07-31T08:22:09;19.60;99.90
23073;DHT22;67971;51.046;3.732;2023-07-31T08:24:35;19.70;99.90
23073;DHT22;67971;51.046;3.732;2023-07-31T08:27:00;19.80;99.90
23073;DHT22;67971;51.046;3.732;2023-07-31T08:29:26;19.70;99.90
23073;DHT22;67971;51.046;3.732;2023-07-31T08:31:52;19.90;99.90
23073;DHT22;67971;51.046;3.732;2023-07-31T08:34:17;19.90;99.90
23073;DHT22;67971;51.046;3.732;2023-07-31T08:36:43;20.00;99.90
23073;DHT22;67971;51.046;3.732;2023-07-31T08:39:08;20.10;99.90
23073;DHT22;67971;51.046;3.732;2023-07-31T08:41:38;20.20;99.90
23073;DHT22;67971;51.046;3.732;2023-07-31T08:44:05;20.30;99.90
23073;DHT22;67971;51.046;3.732;2023-07-31T08:46:31;20.40;99.90
23073;DHT22;67971;51.046;3.732;2023-07-31T08:48:59;20.60;99.90
23073;DHT22;67971;51.046;3.732;2023-07-31T08:51:25;20.70;99.90
23073;DHT22;67971;51.046;3.732;2023-07-31T08:53:53;20.70;99.90
23073;DHT22;67971;51.046;3.732;2023-07-31T08:56:19;20.60;99.90
23073;DHT22;67971;51.046;3.732;2023-07-31T08:58:46;20.50;99.90
23073;DHT22;67971;51.046;3.732;2023-07-31T09:01:12;20.40;99.90
23073;DHT22;67971;51.046;3.732;2023-07-31T09:03:39;20.50;99.90
23073;DHT22;67971;51.046;3.732;2023-07-31T09:06:06;20.50;99.90
23073;DHT22;67971;51.046;3.732;2023-07-31T09:08:32;20.30;99.90
23073;DHT22;67971;51.046;3.732;2023-07-31T09:11:02;20.10;99.90
23073;DHT22;67971;51.046;3.732;2023-07-31T09:13:31;20.20;99.90
23073;DHT22;67971;51.046;3.732;2023-07-31T09:15:57;20.20;99.90
23073;DHT22;67971;51.046;3.732;2023-07-31T09:18:23;20.30;99.90
23073;DHT22;67971;51.046;3.732;2023-07-31T09:21:05;20.40;99.90
23073;DHT22;67971;51.046;3.732;2023-07-31T09:23:45;20.50;99.90
23073;DHT22;67971;51.046;3.732;2023-07-31T09:26:11;20.50;99.90
23073;DHT22;67971;51.046;3.732;2023-07-31T09:28:44;20.50;99.90
23073;DHT22;67971;51.046;3.732;2023-07-31T09:31:10;20.60;99.90
23073;DHT22;67971;51.046;3.732;2023-07-31T09:33:54;20.70;99.90
23073;DHT22;67971;51.046;3.732;2023-07-31T09:36:20;20.80;99.90
23073;DHT22;67971;51.046;3.732;2023-07-31T09:38:46;20.60;99.90
23073;DHT22;67971;51.046;3.732;2023-07-31T09:41:11;20.50;99.90
23073;DHT22;67971;51.046;3.732;2023-07-31T09:43:38;20.50;99.90
23073;DHT22;67971;51.046;3.732;2023-07-31T09:46:04;20.70;99.90
23073;DHT22;67971;51.046;3.732;2023-07-31T09:48:39;20.80;99.90
23073;DHT22;67971;51.046;3.732;2023-07-31T09:51:04;20.90;99.90
23073;DHT22;67971;51.046;3.732;2023-07-31T09:53:30;20.90;99.90
23073;DHT22;67971;51.046;3.732;2023-07-31T09:55:58;20.90;99.90
23073;DHT22;67971;51.046;3.732;2023-07-31T09:58:25;20.90;99.90
23073;DHT22;67971;51.046;3.732;2023-07-31T10:00:53;21.00;99.90
23073;DHT22;67971;51.046;3.732;2023-07-31T10:03:19;21.10;99.90
23073;DHT22;67971;51.046;3.732;2023-07-31T10:05:50;21.20;99.90
23073;DHT22;67971;51.046;3.732;2023-07-31T10:08:17;21.30;99.90
23073;DHT22;67971;51.046;3.732;2023-07-31T10:10:44;21.40;99.90
23073;DHT22;67971;51.046;3.732;2023-07-31T10:13:11;21.50;99.90
23073;DHT22;67971;51.046;3.732;2023-07-31T10:15:36;21.60;99.90
23073;DHT22;67971;51.046;3.732;2023-07-31T10:18:02;21.40;99.90
23073;DHT22;67971;51.046;3.732;2023-07-31T10:20:31;21.30;99.90
23073;DHT22;67971;51.046;3.732;2023-07-31T10:22:57;21.20;99.90
23073;DHT22;67971;51.046;3.732;2023-07-31T10:25:26;21.10;99.90
23073;DHT22;67971;51.046;3.732;2023-07-31T10:27:53;20.90;99.90
23073;DHT22;67971;51.046;3.732;2023-07-31T10:30:22;20.70;99.90
23073;DHT22;67971;51.046;3.732;2023-07-31T10:32:51;20.60;99.90
23073;DHT22;67971;51.046;3.732;2023-07-31T10:35:18;20.60;99.90
23073;DHT22;67971;51.046;3.732;2023-07-31T10:37:45;20.50;99.90
23073;DHT22;67971;51.046;3.732;2023-07-31T10:42:45;20.70;99.90
23073;DHT22;67971;51.046;3.732;2023-07-31T10:45:10;20.80;99.90
23073;DHT22;67971;51.046;3.732;2023-07-31T10:47:43;20.80;99.90
23073;DHT22;67971;51.046;3.732;2023-07-31T10:52:39;21.10;99.90
23073;DHT22;67971;51.046;3.732;2023-07-31T10:57:49;21.40;99.90
23073;DHT22;67971;51.046;3.732;2023-07-31T11:00:29;21.50;99.90
23073;DHT22;67971;51.046;3.732;2023-07-31T11:03:15;21.60;99.90
23073;DHT22;67971;51.046;3.732;2023-07-31T11:06:00;21.60;99.90
23073;DHT22;67971;51.046;3.732;2023-07-31T11:08:32;21.60;99.90
23073;DHT22;67971;51.046;3.732;2023-07-31T11:11:17;21.50;99.90
23073;DHT22;67971;51.046;3.732;2023-07-31T11:13:53;21.50;99.90
23073;DHT22;67971;51.046;3.732;2023-07-31T11:16:21;21.80;99.90
23073;DHT22;67971;51.046;3.732;2023-07-31T11:18:48;21.90;99.90
23073;DHT22;67971;51.046;3.732;2023-07-31T11:21:16;22.20;99.90
23073;DHT22;67971;51.046;3.732;2023-07-31T11:23:46;22.40;99.90
23073;DHT22;67971;51.046;3.732;2023-07-31T11:26:11;22.30;99.90
23073;DHT22;67971;51.046;3.732;2023-07-31T11:28:37;22.10;99.90
23073;DHT22;67971;51.046;3.732;2023-07-31T11:31:03;21.80;99.90
23073;DHT22;67971;51.046;3.732;2023-07-31T11:33:30;21.60;99.90
23073;DHT22;67971;51.046;3.732;2023-07-31T11:35:56;21.50;99.90
23073;DHT22;67971;51.046;3.732;2023-07-31T11:38:22;21.60;99.90
23073;DHT22;67971;51.046;3.732;2023-07-31T11:40:52;21.60;99.90
23073;DHT22;67971;51.046;3.732;2023-07-31T11:43:19;21.60;99.90
23073;DHT22;67971;51.046;3.732;2023-07-31T11:45:55;21.60;99.90
23073;DHT22;67971;51.046;3.732;2023-07-31T11:48:27;21.80;99.90
23073;DHT22;67971;51.046;3.732;2023-07-31T11:50:57;22.10;99.90
23073;DHT22;67971;51.046;3.732;2023-07-31T11:53:38;22.30;99.90
23073;DHT22;67971;51.046;3.732;2023-07-31T11:56:08;22.50;99.90
23073;DHT22;67971;51.046;3.732;2023-07-31T11:58:36;22.40;99.90
23073;DHT22;67971;51.046;3.732;2023-07-31T12:01:02;22.30;99.90
23073;DHT22;67971;51.046;3.732;2023-07-31T12:03:29;22.10;99.90
23073;DHT22;67971;51.046;3.732;2023-07-31T12:05:55;21.90;99.90
23073;DHT22;67971;51.046;3.732;2023-07-31T12:08:21;21.70;99.90
23073;DHT22;67971;51.046;3.732;2023-07-31T12:10:50;21.60;99.90
23073;DHT22;67971;51.046;3.732;2023-07-31T12:13:24;21.60;99.90
23073;DHT22;67971;51.046;3.732;2023-07-31T12:15:59;21.60;99.90
23073;DHT22;67971;51.046;3.732;2023-07-31T12:18:27;21.50;99.90
23073;DHT22;67971;51.046;3.732;2023-07-31T12:21:00;21.50;99.90
23073;DHT22;67971;51.046;3.732;2023-07-31T12:23:28;21.40;99.90
23073;DHT22;67971;51.046;3.732;2023-07-31T12:26:11;21.40;99.90
23073;DHT22;67971;51.046;3.732;2023-07-31T12:28:42;21.50;99.90
23073;DHT22;67971;51.046;3.732;2023-07-31T12:33:39;21.30;99.90
23073;DHT22;67971;51.046;3.732;2023-07-31T12:36:10;21.10;99.90
23073;DHT22;67971;51.046;3.732;2023-07-31T12:38:35;20.80;99.90
23073;DHT22;67971;51.046;3.732;2023-07-31T12:41:01;20.60;99.90
23073;DHT22;67971;51.046;3.732;2023-07-31T12:43:27;20.60;99.90
23073;DHT22;67971;51.046;3.732;2023-07-31T12:45:54;20.30;99.90
23073;DHT22;67971;51.046;3.732;2023-07-31T12:48:21;20.20;99.90
23073;DHT22;67971;51.046;3.732;2023-07-31T12:50:47;20.10;99.90
23073;DHT22;67971;51.046;3.732;2023-07-31T12:53:15;20.10;99.90
23073;DHT22;67971;51.046;3.732;2023-07-31T12:55:40;20.10;99.90
23073;DHT22;67971;51.046;3.732;2023-07-31T12:58:06;20.10;99.90
23073;DHT22;67971;51.046;3.732;2023-07-31T13:00:32;20.10;99.90
23073;DHT22;67971;51.046;3.732;2023-07-31T13:02:57;20.10;99.90
23073;DHT22;67971;51.046;3.732;2023-07-31T13:05:23;20.00;99.90
23073;DHT22;67971;51.046;3.732;2023-07-31T13:07:49;20.00;99.90
23073;DHT22;67971;51.046;3.732;2023-07-31T13:10:15;19.90;99.90
23073;DHT22;67971;51.046;3.732;2023-07-31T13:12:40;19.80;99.90
23073;DHT22;67971;51.046;3.732;2023-07-31T13:15:07;19.70;99.90
23073;DHT22;67971;51.046;3.732;2023-07-31T13:17:32;19.70;99.90
23073;DHT22;67971;51.046;3.732;2023-07-31T13:19:58;19.60;99.90
23073;DHT22;67971;51.046;3.732;2023-07-31T13:22:25;19.50;99.90
23073;DHT22;67971;51.046;3.732;2023-07-31T13:24:50;19.40;99.90
23073;DHT22;67971;51.046;3.732;2023-07-31T13:27:16;19.40;99.90
23073;DHT22;67971;51.046;3.732;2023-07-31T13:29:51;19.30;99.90
23073;DHT22;67971;51.046;3.732;2023-07-31T13:32:17;19.30;99.90
23073;DHT22;67971;51.046;3.732;2023-07-31T13:34:43;19.20;99.90
23073;DHT22;67971;51.046;3.732;2023-07-31T13:37:10;19.20;99.90
23073;DHT22;67971;51.046;3.732;2023-07-31T13:39:35;19.10;99.90
23073;DHT22;67971;51.046;3.732;2023-07-31T13:42:02;19.00;99.90
23073;DHT22;67971;51.046;3.732;2023-07-31T13:44:28;19.00;99.90
23073;DHT22;67971;51.046;3.732;2023-07-31T13:46:54;18.90;99.90
23073;DHT22;67971;51.046;3.732;2023-07-31T13:49:19;18.80;99.90
23073;DHT22;67971;51.046;3.732;2023-07-31T13:51:45;18.80;99.90
23073;DHT22;67971;51.046;3.732;2023-07-31T13:54:11;18.80;99.90
23073;DHT22;67971;51.046;3.732;2023-07-31T13:56:38;18.80;99.90
23073;DHT22;67971;51.046;3.732;2023-07-31T13:59:04;18.80;99.90
23073;DHT22;67971;51.046;3.732;2023-07-31T14:01:29;18.70;99.90
23073;DHT22;67971;51.046;3.732;2023-07-31T14:03:55;18.70;99.90
23073;DHT22;67971;51.046;3.732;2023-07-31T14:06:21;18.70;99.90
23073;DHT22;67971;51.046;3.732;2023-07-31T14:08:47;18.60;99.90
23073;DHT22;67971;51.046;3.732;2023-07-31T14:11:12;18.60;99.90
23073;DHT22;67971;51.046;3.732;2023-07-31T14:13:38;18.70;99.90
23073;DHT22;67971;51.046;3.732;2023-07-31T14:16:04;18.70;99.90
23073;DHT22;67971;51.046;3.732;2023-07-31T14:18:29;18.80;99.90
23073;DHT22;67971;51.046;3.732;2023-07-31T14:20:55;18.80;99.90
23073;DHT22;67971;51.046;3.732;2023-07-31T14:23:20;18.70;99.90
23073;DHT22;67971;51.046;3.732;2023-07-31T14:25:47;18.70;99.90
23073;DHT22;67971;51.046;3.732;2023-07-31T14:28:12;18.80;99.90
23073;DHT22;67971;51.046;3.732;2023-07-31T14:30:38;18.70;99.90
23073;DHT22;67971;51.046;3.732;2023-07-31T14:33:04;18.80;99.90
23073;DHT22;67971;51.046;3.732;2023-07-31T14:35:30;18.80;99.90
23073;DHT22;67971;51.046;3.732;2023-07-31T14:37:56;18.80;99.90
23073;DHT22;67971;51.046;3.732;2023-07-31T14:40:21;18.80;99.90
23073;DHT22;67971;51.046;3.732;2023-07-31T14:42:47;18.90;99.90
23073;DHT22;67971;51.046;3.732;2023-07-31T14:45:13;19.00;99.90
23073;DHT22;67971;51.046;3.732;2023-07-31T14:47:38;19.00;99.90
23073;DHT22;67971;51.046;3.732;2023-07-31T14:50:04;19.00;99.90
23073;DHT22;67971;51.046;3.732;2023-07-31T14:52:30;19.00;99.90
23073;DHT22;67971;51.046;3.732;2023-07-31T14:54:56;19.00;99.90
23073;DHT22;67971;51.046;3.732;2023-07-31T14:57:21;18.90;99.90
23073;DHT22;67971;51.046;3.732;2023-07-31T14:59:47;18.90;99.90
23073;DHT22;67971;51.046;3.732;2023-07-31T15:02:15;18.90;99.90
23073;DHT22;67971;51.046;3.732;2023-07-31T15:04:41;18.90;99.90
23073;DHT22;67971;51.046;3.732;2023-07-31T15:07:07;18.90;99.90
23073;DHT22;67971;51.046;3.732;2023-07-31T15:09:32;18.90;99.90
23073;DHT22;67971;51.046;3.732;2023-07-31T15:11:58;18.90;99.90
23073;DHT22;67971;51.046;3.732;2023-07-31T15:14:24;18.80;99.90
23073;DHT22;67971;51.046;3.732;2023-07-31T15:16:50;18.80;99.90
23073;DHT22;67971;51.046;3.732;2023-07-31T15:19:16;18.70;99.90
23073;DHT22;67971;51.046;3.732;2023-07-31T15:21:42;18.70;99.90
23073;DHT22;67971;51.046;3.732;2023-07-31T15:24:07;18.80;99.90
23073;DHT22;67971;51.046;3.732;2023-07-31T15:26:33;18.90;99.90
23073;DHT22;67971;51.046;3.732;2023-07-31T15:29:03;18.90;99.90
23073;DHT22;67971;51.046;3.732;2023-07-31T15:31:34;18.90;99.90
23073;DHT22;67971;51.046;3.732;2023-07-31T15:33:59;18.90;99.90
23073;DHT22;67971;51.046;3.732;2023-07-31T15:36:25;18.90;99.90
23073;DHT22;67971;51.046;3.732;2023-07-31T15:38:51;18.80;99.90
23073;DHT22;67971;51.046;3.732;2023-07-31T15:41:18;18.90;99.90
23073;DHT22;67971;51.046;3.732;2023-07-31T15:43:43;19.00;99.90